sensor_id;sensor_type;location;lat;lon;timestamp;P1;durP1;ratioP1;P2;durP2;ratioP2
17864;SDS011;9058;52.018;4.202;2022-12-18T00:00:10;135.37;;;43.63;;
17864;SDS011;9058;52.018;4.202;2022-12-18T00:02:37;108.03;;;31.33;;
17864;SDS011;9058;52.018;4.202;2022-12-18T00:05:03;139.93;;;40.67;;
17864;SDS011;9058;52.018;4.202;2022-12-18T00:07:30;113.07;;;34.13;;
17864;SDS011;9058;52.018;4.202;2022-12-18T00:09:57;130.00;;;39.00;;
17864;SDS011;9058;52.018;4.202;2022-12-18T00:12:24;120.83;;;34.70;;
17864;SDS011;9058;52.018;4.202;2022-12-18T00:14:50;131.83;;;39.27;;
17864;SDS011;9058;52.018;4.202;2022-12-18T00:17:16;147.53;;;40.30;;
17864;SDS011;9058;52.018;4.202;2022-12-18T00:19:43;133.30;;;38.80;;
17864;SDS011;9058;52.018;4.202;2022-12-18T00:22:09;200.83;;;51.67;;
17864;SDS011;9058;52.018;4.202;2022-12-18T00:24:36;194.90;;;48.47;;
17864;SDS011;9058;52.018;4.202;2022-12-18T00:27:03;153.43;;;40.93;;
17864;SDS011;9058;52.018;4.202;2022-12-18T00:29:30;190.27;;;50.63;;
17864;SDS011;9058;52.018;4.202;2022-12-18T00:31:57;130.97;;;36.60;;
17864;SDS011;9058;52.018;4.202;2022-12-18T00:34:23;209.77;;;49.47;;
17864;SDS011;9058;52.018;4.202;2022-12-18T00:36:50;148.53;;;42.27;;
17864;SDS011;9058;52.018;4.202;2022-12-18T00:39:16;139.40;;;42.23;;
17864;SDS011;9058;52.018;4.202;2022-12-18T00:41:42;144.43;;;46.73;;
17864;SDS011;9058;52.018;4.202;2022-12-18T00:44:27;165.03;;;43.83;;
17864;SDS011;9058;52.018;4.202;2022-12-18T00:46:54;143.60;;;44.40;;
17864;SDS011;9058;52.018;4.202;2022-12-18T00:49:20;142.17;;;39.43;;
17864;SDS011;9058;52.018;4.202;2022-12-18T00:51:47;160.27;;;45.20;;
17864;SDS011;9058;52.018;4.202;2022-12-18T00:54:13;114.80;;;37.27;;
17864;SDS011;9058;52.018;4.202;2022-12-18T00:56:40;153.40;;;47.77;;
17864;SDS011;9058;52.018;4.202;2022-12-18T00:59:06;143.43;;;41.97;;
17864;SDS011;9058;52.018;4.202;2022-12-18T01:01:34;146.37;;;46.17;;
17864;SDS011;9058;52.018;4.202;2022-12-18T01:04:01;103.43;;;34.40;;
17864;SDS011;9058;52.018;4.202;2022-12-18T01:06:28;125.70;;;42.73;;
17864;SDS011;9058;52.018;4.202;2022-12-18T01:08:55;145.30;;;45.67;;
17864;SDS011;9058;52.018;4.202;2022-12-18T01:11:21;121.97;;;40.13;;
17864;SDS011;9058;52.018;4.202;2022-12-18T01:13:48;114.30;;;39.73;;
17864;SDS011;9058;52.018;4.202;2022-12-18T01:16:15;117.43;;;41.13;;
17864;SDS011;9058;52.018;4.202;2022-12-18T01:18:44;122.40;;;36.83;;
17864;SDS011;9058;52.018;4.202;2022-12-18T01:21:11;139.97;;;49.60;;
17864;SDS011;9058;52.018;4.202;2022-12-18T01:23:38;110.80;;;38.13;;
17864;SDS011;9058;52.018;4.202;2022-12-18T01:26:05;100.33;;;34.70;;
17864;SDS011;9058;52.018;4.202;2022-12-18T01:28:32;122.60;;;40.53;;
17864;SDS011;9058;52.018;4.202;2022-12-18T01:31:08;127.63;;;42.43;;
17864;SDS011;9058;52.018;4.202;2022-12-18T01:33:34;102.90;;;36.33;;
17864;SDS011;9058;52.018;4.202;2022-12-18T01:36:02;98.10;;;33.03;;
17864;SDS011;9058;52.018;4.202;2022-12-18T01:38:30;123.07;;;42.43;;
17864;SDS011;9058;52.018;4.202;2022-12-18T01:40:56;135.37;;;42.53;;
17864;SDS011;9058;52.018;4.202;2022-12-18T01:43:39;132.97;;;46.73;;
17864;SDS011;9058;52.018;4.202;2022-12-18T01:46:06;144.63;;;46.47;;
17864;SDS011;9058;52.018;4.202;2022-12-18T01:48:32;131.60;;;44.80;;
17864;SDS011;9058;52.018;4.202;2022-12-18T01:50:59;142.80;;;43.93;;
17864;SDS011;9058;52.018;4.202;2022-12-18T01:53:29;71.43;;;30.40;;
17864;SDS011;9058;52.018;4.202;2022-12-18T01:55:56;141.60;;;44.17;;
17864;SDS011;9058;52.018;4.202;2022-12-18T01:58:24;160.03;;;48.33;;
17864;SDS011;9058;52.018;4.202;2022-12-18T02:00:53;133.60;;;43.60;;
17864;SDS011;9058;52.018;4.202;2022-12-18T02:03:20;136.43;;;44.67;;
17864;SDS011;9058;52.018;4.202;2022-12-18T02:05:47;117.37;;;36.47;;
17864;SDS011;9058;52.018;4.202;2022-12-18T02:08:17;128.77;;;43.40;;
17864;SDS011;9058;52.018;4.202;2022-12-18T02:10:48;75.37;;;27.17;;
17864;SDS011;9058;52.018;4.202;2022-12-18T02:13:19;119.30;;;39.83;;
17864;SDS011;9058;52.018;4.202;2022-12-18T02:15:49;103.27;;;35.53;;
17864;SDS011;9058;52.018;4.202;2022-12-18T02:18:18;133.87;;;41.67;;
17864;SDS011;9058;52.018;4.202;2022-12-18T02:20:45;105.77;;;36.10;;
17864;SDS011;9058;52.018;4.202;2022-12-18T02:23:17;137.67;;;41.00;;
17864;SDS011;9058;52.018;4.202;2022-12-18T02:25:58;125.37;;;40.73;;
17864;SDS011;9058;52.018;4.202;2022-12-18T02:28:29;111.17;;;33.97;;
17864;SDS011;9058;52.018;4.202;2022-12-18T02:30:58;133.50;;;41.63;;
17864;SDS011;9058;52.018;4.202;2022-12-18T02:33:26;124.67;;;39.03;;
17864;SDS011;9058;52.018;4.202;2022-12-18T02:35:53;138.17;;;40.20;;
17864;SDS011;9058;52.018;4.202;2022-12-18T02:38:21;116.90;;;34.83;;
17864;SDS011;9058;52.018;4.202;2022-12-18T02:40:49;116.53;;;37.67;;
17864;SDS011;9058;52.018;4.202;2022-12-18T02:43:17;128.33;;;35.93;;
17864;SDS011;9058;52.018;4.202;2022-12-18T02:45:47;111.33;;;36.67;;
17864;SDS011;9058;52.018;4.202;2022-12-18T02:48:14;90.83;;;31.10;;
17864;SDS011;9058;52.018;4.202;2022-12-18T02:50:42;93.20;;;31.23;;
17864;SDS011;9058;52.018;4.202;2022-12-18T02:53:13;85.97;;;25.77;;
17864;SDS011;9058;52.018;4.202;2022-12-18T02:55:45;98.40;;;23.33;;
17864;SDS011;9058;52.018;4.202;2022-12-18T02:58:15;105.13;;;25.13;;
17864;SDS011;9058;52.018;4.202;2022-12-18T03:00:47;65.67;;;21.87;;
17864;SDS011;9058;52.018;4.202;2022-12-18T03:03:16;51.07;;;19.70;;
17864;SDS011;9058;52.018;4.202;2022-12-18T03:05:46;87.33;;;28.63;;
17864;SDS011;9058;52.018;4.202;2022-12-18T03:08:14;73.33;;;28.27;;
17864;SDS011;9058;52.018;4.202;2022-12-18T03:10:42;64.53;;;24.87;;
17864;SDS011;9058;52.018;4.202;2022-12-18T03:13:12;92.43;;;31.37;;
17864;SDS011;9058;52.018;4.202;2022-12-18T03:15:40;105.93;;;33.23;;
17864;SDS011;9058;52.018;4.202;2022-12-18T03:18:10;107.30;;;37.30;;
17864;SDS011;9058;52.018;4.202;2022-12-18T03:20:38;107.80;;;35.93;;
17864;SDS011;9058;52.018;4.202;2022-12-18T03:23:06;94.17;;;29.67;;
17864;SDS011;9058;52.018;4.202;2022-12-18T03:25:34;88.77;;;31.77;;
17864;SDS011;9058;52.018;4.202;2022-12-18T03:28:03;94.70;;;34.53;;
17864;SDS011;9058;52.018;4.202;2022-12-18T03:30:33;97.80;;;32.03;;
17864;SDS011;9058;52.018;4.202;2022-12-18T03:33:02;83.63;;;27.33;;
17864;SDS011;9058;52.018;4.202;2022-12-18T03:35:35;91.67;;;34.43;;
17864;SDS011;9058;52.018;4.202;2022-12-18T03:38:03;106.23;;;36.17;;
17864;SDS011;9058;52.018;4.202;2022-12-18T03:40:31;108.97;;;37.30;;
17864;SDS011;9058;52.018;4.202;2022-12-18T03:43:02;99.17;;;34.40;;
17864;SDS011;9058;52.018;4.202;2022-12-18T03:45:31;93.67;;;34.00;;
17864;SDS011;9058;52.018;4.202;2022-12-18T03:48:00;93.80;;;33.40;;
17864;SDS011;9058;52.018;4.202;2022-12-18T03:50:32;90.87;;;34.63;;
17864;SDS011;9058;52.018;4.202;2022-12-18T03:53:02;107.97;;;37.60;;
17864;SDS011;9058;52.018;4.202;2022-12-18T03:55:32;84.20;;;33.47;;
17864;SDS011;9058;52.018;4.202;2022-12-18T03:58:00;69.37;;;27.03;;
17864;SDS011;9058;52.018;4.202;2022-12-18T04:00:28;90.87;;;33.70;;
17864;SDS011;9058;52.018;4.202;2022-12-18T04:02:55;79.13;;;32.17;;
17864;SDS011;9058;52.018;4.202;2022-12-18T04:05:22;83.07;;;29.47;;
17864;SDS011;9058;52.018;4.202;2022-12-18T04:07:50;80.07;;;28.77;;
17864;SDS011;9058;52.018;4.202;2022-12-18T04:10:19;95.13;;;33.50;;
17864;SDS011;9058;52.018;4.202;2022-12-18T04:12:45;89.27;;;36.13;;
17864;SDS011;9058;52.018;4.202;2022-12-18T04:15:12;104.40;;;39.30;;
17864;SDS011;9058;52.018;4.202;2022-12-18T04:17:38;96.70;;;35.30;;
17864;SDS011;9058;52.018;4.202;2022-12-18T04:20:09;88.97;;;34.93;;
17864;SDS011;9058;52.018;4.202;2022-12-18T04:22:36;95.03;;;34.30;;
17864;SDS011;9058;52.018;4.202;2022-12-18T04:25:02;98.43;;;35.70;;
17864;SDS011;9058;52.018;4.202;2022-12-18T04:27:30;80.77;;;35.67;;
17864;SDS011;9058;52.018;4.202;2022-12-18T04:29:58;85.43;;;35.07;;
17864;SDS011;9058;52.018;4.202;2022-12-18T04:32:24;81.90;;;32.67;;
17864;SDS011;9058;52.018;4.202;2022-12-18T04:34:50;87.03;;;34.27;;
17864;SDS011;9058;52.018;4.202;2022-12-18T04:37:17;81.60;;;32.33;;
17864;SDS011;9058;52.018;4.202;2022-12-18T04:39:44;79.17;;;33.20;;
17864;SDS011;9058;52.018;4.202;2022-12-18T04:42:11;90.07;;;34.73;;
17864;SDS011;9058;52.018;4.202;2022-12-18T04:44:39;90.37;;;35.37;;
17864;SDS011;9058;52.018;4.202;2022-12-18T04:47:05;102.37;;;33.60;;
17864;SDS011;9058;52.018;4.202;2022-12-18T04:49:32;85.63;;;33.80;;
17864;SDS011;9058;52.018;4.202;2022-12-18T04:51:58;89.10;;;32.13;;
17864;SDS011;9058;52.018;4.202;2022-12-18T04:54:25;78.27;;;31.10;;
17864;SDS011;9058;52.018;4.202;2022-12-18T04:56:51;89.03;;;32.53;;
17864;SDS011;9058;52.018;4.202;2022-12-18T04:59:17;71.53;;;27.00;;
17864;SDS011;9058;52.018;4.202;2022-12-18T05:01:45;86.90;;;33.17;;
17864;SDS011;9058;52.018;4.202;2022-12-18T05:04:11;77.40;;;29.53;;
17864;SDS011;9058;52.018;4.202;2022-12-18T05:06:38;68.90;;;26.77;;
17864;SDS011;9058;52.018;4.202;2022-12-18T05:09:04;92.27;;;35.57;;
17864;SDS011;9058;52.018;4.202;2022-12-18T05:11:30;82.37;;;33.60;;
17864;SDS011;9058;52.018;4.202;2022-12-18T05:13:57;95.03;;;34.03;;
17864;SDS011;9058;52.018;4.202;2022-12-18T05:16:23;80.67;;;32.47;;
17864;SDS011;9058;52.018;4.202;2022-12-18T05:18:51;78.07;;;31.13;;
17864;SDS011;9058;52.018;4.202;2022-12-18T05:21:17;88.63;;;34.53;;
17864;SDS011;9058;52.018;4.202;2022-12-18T05:23:43;79.60;;;30.70;;
17864;SDS011;9058;52.018;4.202;2022-12-18T05:26:11;75.60;;;29.47;;
17864;SDS011;9058;52.018;4.202;2022-12-18T05:28:40;61.70;;;25.10;;
17864;SDS011;9058;52.018;4.202;2022-12-18T05:31:06;89.37;;;30.00;;
17864;SDS011;9058;52.018;4.202;2022-12-18T05:33:33;75.10;;;30.03;;
17864;SDS011;9058;52.018;4.202;2022-12-18T05:36:02;77.90;;;30.23;;
17864;SDS011;9058;52.018;4.202;2022-12-18T05:38:29;74.97;;;31.00;;
17864;SDS011;9058;52.018;4.202;2022-12-18T05:40:56;78.27;;;33.23;;
17864;SDS011;9058;52.018;4.202;2022-12-18T05:43:22;76.03;;;29.70;;
17864;SDS011;9058;52.018;4.202;2022-12-18T05:45:49;70.67;;;30.63;;
17864;SDS011;9058;52.018;4.202;2022-12-18T05:48:16;82.83;;;32.00;;
17864;SDS011;9058;52.018;4.202;2022-12-18T05:50:44;83.93;;;31.87;;
17864;SDS011;9058;52.018;4.202;2022-12-18T05:53:13;81.07;;;29.77;;
17864;SDS011;9058;52.018;4.202;2022-12-18T05:55:40;72.57;;;28.30;;
17864;SDS011;9058;52.018;4.202;2022-12-18T05:58:07;70.13;;;27.17;;
17864;SDS011;9058;52.018;4.202;2022-12-18T06:00:35;82.37;;;30.17;;
17864;SDS011;9058;52.018;4.202;2022-12-18T06:03:04;69.00;;;27.97;;
17864;SDS011;9058;52.018;4.202;2022-12-18T06:05:34;67.60;;;27.03;;
17864;SDS011;9058;52.018;4.202;2022-12-18T06:08:00;68.97;;;26.60;;
17864;SDS011;9058;52.018;4.202;2022-12-18T06:10:29;59.83;;;23.77;;
17864;SDS011;9058;52.018;4.202;2022-12-18T06:12:55;62.00;;;24.80;;
17864;SDS011;9058;52.018;4.202;2022-12-18T06:15:21;52.00;;;20.60;;
17864;SDS011;9058;52.018;4.202;2022-12-18T06:17:47;45.60;;;20.73;;
17864;SDS011;9058;52.018;4.202;2022-12-18T06:20:14;55.30;;;23.83;;
17864;SDS011;9058;52.018;4.202;2022-12-18T06:22:41;42.77;;;19.50;;
17864;SDS011;9058;52.018;4.202;2022-12-18T06:25:08;39.50;;;17.90;;
17864;SDS011;9058;52.018;4.202;2022-12-18T06:27:36;40.93;;;17.83;;
17864;SDS011;9058;52.018;4.202;2022-12-18T06:30:02;41.53;;;17.93;;
17864;SDS011;9058;52.018;4.202;2022-12-18T06:32:29;60.13;;;23.50;;
17864;SDS011;9058;52.018;4.202;2022-12-18T06:34:55;47.57;;;19.93;;
17864;SDS011;9058;52.018;4.202;2022-12-18T06:37:21;46.07;;;17.80;;
17864;SDS011;9058;52.018;4.202;2022-12-18T06:39:50;40.83;;;18.77;;
17864;SDS011;9058;52.018;4.202;2022-12-18T06:42:17;47.27;;;21.43;;
17864;SDS011;9058;52.018;4.202;2022-12-18T06:44:44;55.43;;;21.67;;
17864;SDS011;9058;52.018;4.202;2022-12-18T06:47:11;47.40;;;19.87;;
17864;SDS011;9058;52.018;4.202;2022-12-18T06:49:37;53.53;;;22.57;;
17864;SDS011;9058;52.018;4.202;2022-12-18T06:52:03;43.30;;;18.03;;
17864;SDS011;9058;52.018;4.202;2022-12-18T06:54:30;50.40;;;19.87;;
17864;SDS011;9058;52.018;4.202;2022-12-18T06:56:56;49.00;;;19.33;;
17864;SDS011;9058;52.018;4.202;2022-12-18T06:59:22;43.43;;;18.93;;
17864;SDS011;9058;52.018;4.202;2022-12-18T07:01:50;45.43;;;21.03;;
17864;SDS011;9058;52.018;4.202;2022-12-18T07:04:17;42.00;;;17.33;;
17864;SDS011;9058;52.018;4.202;2022-12-18T07:06:43;48.30;;;19.47;;
17864;SDS011;9058;52.018;4.202;2022-12-18T07:09:09;41.93;;;19.13;;
17864;SDS011;9058;52.018;4.202;2022-12-18T07:11:36;27.07;;;14.27;;
17864;SDS011;9058;52.018;4.202;2022-12-18T07:14:02;32.33;;;17.00;;
17864;SDS011;9058;52.018;4.202;2022-12-18T07:16:28;31.17;;;17.33;;
17864;SDS011;9058;52.018;4.202;2022-12-18T07:18:56;28.27;;;13.03;;
17864;SDS011;9058;52.018;4.202;2022-12-18T07:21:23;32.47;;;14.70;;
17864;SDS011;9058;52.018;4.202;2022-12-18T07:23:50;22.63;;;12.37;;
17864;SDS011;9058;52.018;4.202;2022-12-18T07:26:17;27.83;;;14.00;;
17864;SDS011;9058;52.018;4.202;2022-12-18T07:28:44;28.10;;;13.90;;
17864;SDS011;9058;52.018;4.202;2022-12-18T07:31:12;32.67;;;17.37;;
17864;SDS011;9058;52.018;4.202;2022-12-18T07:33:38;23.70;;;11.97;;
17864;SDS011;9058;52.018;4.202;2022-12-18T07:36:07;27.33;;;15.20;;
17864;SDS011;9058;52.018;4.202;2022-12-18T07:38:34;39.43;;;19.40;;
17864;SDS011;9058;52.018;4.202;2022-12-18T07:41:01;31.90;;;15.93;;
17864;SDS011;9058;52.018;4.202;2022-12-18T07:43:28;27.53;;;14.27;;
17864;SDS011;9058;52.018;4.202;2022-12-18T07:45:54;26.97;;;14.37;;
17864;SDS011;9058;52.018;4.202;2022-12-18T07:48:21;33.43;;;18.30;;
17864;SDS011;9058;52.018;4.202;2022-12-18T07:50:47;30.27;;;15.17;;
17864;SDS011;9058;52.018;4.202;2022-12-18T07:53:15;36.27;;;18.77;;
17864;SDS011;9058;52.018;4.202;2022-12-18T07:55:41;35.43;;;16.70;;
17864;SDS011;9058;52.018;4.202;2022-12-18T07:58:07;39.43;;;18.97;;
17864;SDS011;9058;52.018;4.202;2022-12-18T08:00:34;34.20;;;17.53;;
17864;SDS011;9058;52.018;4.202;2022-12-18T08:03:01;32.63;;;15.50;;
17864;SDS011;9058;52.018;4.202;2022-12-18T08:05:27;22.50;;;14.80;;
17864;SDS011;9058;52.018;4.202;2022-12-18T08:07:54;32.57;;;17.13;;
17864;SDS011;9058;52.018;4.202;2022-12-18T08:10:22;27.73;;;14.70;;
17864;SDS011;9058;52.018;4.202;2022-12-18T08:12:49;25.80;;;14.77;;
17864;SDS011;9058;52.018;4.202;2022-12-18T08:15:16;24.33;;;13.67;;
17864;SDS011;9058;52.018;4.202;2022-12-18T08:17:42;31.60;;;14.70;;
17864;SDS011;9058;52.018;4.202;2022-12-18T08:20:10;18.80;;;11.07;;
17864;SDS011;9058;52.018;4.202;2022-12-18T08:22:36;25.27;;;14.30;;
17864;SDS011;9058;52.018;4.202;2022-12-18T08:25:04;23.93;;;15.07;;
17864;SDS011;9058;52.018;4.202;2022-12-18T08:27:32;26.30;;;14.00;;
17864;SDS011;9058;52.018;4.202;2022-12-18T08:29:59;25.37;;;13.27;;
17864;SDS011;9058;52.018;4.202;2022-12-18T08:32:25;23.53;;;13.63;;
17864;SDS011;9058;52.018;4.202;2022-12-18T08:34:52;27.83;;;14.47;;
17864;SDS011;9058;52.018;4.202;2022-12-18T08:37:18;21.13;;;12.30;;
17864;SDS011;9058;52.018;4.202;2022-12-18T08:39:45;28.17;;;18.03;;
17864;SDS011;9058;52.018;4.202;2022-12-18T08:42:11;27.43;;;14.47;;
17864;SDS011;9058;52.018;4.202;2022-12-18T08:44:57;25.97;;;13.80;;
17864;SDS011;9058;52.018;4.202;2022-12-18T08:47:23;26.37;;;15.10;;
17864;SDS011;9058;52.018;4.202;2022-12-18T08:49:51;24.50;;;13.47;;
17864;SDS011;9058;52.018;4.202;2022-12-18T08:52:18;26.13;;;13.77;;
17864;SDS011;9058;52.018;4.202;2022-12-18T08:54:44;17.70;;;11.50;;
17864;SDS011;9058;52.018;4.202;2022-12-18T08:57:11;18.10;;;10.80;;
17864;SDS011;9058;52.018;4.202;2022-12-18T08:59:37;15.93;;;10.27;;
17864;SDS011;9058;52.018;4.202;2022-12-18T09:02:05;18.73;;;10.43;;
17864;SDS011;9058;52.018;4.202;2022-12-18T09:04:31;18.97;;;9.33;;
17864;SDS011;9058;52.018;4.202;2022-12-18T09:06:58;21.57;;;11.57;;
17864;SDS011;9058;52.018;4.202;2022-12-18T09:09:24;20.07;;;11.90;;
17864;SDS011;9058;52.018;4.202;2022-12-18T09:11:51;16.87;;;10.93;;
17864;SDS011;9058;52.018;4.202;2022-12-18T09:14:17;21.20;;;13.30;;
17864;SDS011;9058;52.018;4.202;2022-12-18T09:16:43;23.13;;;13.67;;
17864;SDS011;9058;52.018;4.202;2022-12-18T09:19:11;20.93;;;11.03;;
17864;SDS011;9058;52.018;4.202;2022-12-18T09:21:37;14.17;;;9.30;;
17864;SDS011;9058;52.018;4.202;2022-12-18T09:24:05;24.53;;;14.67;;
17864;SDS011;9058;52.018;4.202;2022-12-18T09:26:33;18.20;;;10.07;;
17864;SDS011;9058;52.018;4.202;2022-12-18T09:28:59;17.73;;;12.10;;
17864;SDS011;9058;52.018;4.202;2022-12-18T09:31:25;21.33;;;12.60;;
17864;SDS011;9058;52.018;4.202;2022-12-18T09:33:54;20.53;;;11.23;;
17864;SDS011;9058;52.018;4.202;2022-12-18T09:36:22;27.63;;;14.03;;
17864;SDS011;9058;52.018;4.202;2022-12-18T09:38:48;24.03;;;12.03;;
17864;SDS011;9058;52.018;4.202;2022-12-18T09:41:19;18.80;;;10.93;;
17864;SDS011;9058;52.018;4.202;2022-12-18T09:43:51;19.87;;;11.87;;
17864;SDS011;9058;52.018;4.202;2022-12-18T09:46:19;17.90;;;10.53;;
17864;SDS011;9058;52.018;4.202;2022-12-18T09:48:46;22.90;;;13.83;;
17864;SDS011;9058;52.018;4.202;2022-12-18T09:51:15;19.50;;;12.63;;
17864;SDS011;9058;52.018;4.202;2022-12-18T09:53:44;20.87;;;15.20;;
17864;SDS011;9058;52.018;4.202;2022-12-18T09:56:15;21.73;;;13.60;;
17864;SDS011;9058;52.018;4.202;2022-12-18T09:58:43;20.80;;;13.40;;
17864;SDS011;9058;52.018;4.202;2022-12-18T10:01:12;15.23;;;9.53;;
17864;SDS011;9058;52.018;4.202;2022-12-18T10:03:40;19.67;;;11.43;;
17864;SDS011;9058;52.018;4.202;2022-12-18T10:06:10;17.20;;;10.53;;
17864;SDS011;9058;52.018;4.202;2022-12-18T10:08:49;21.27;;;12.67;;
17864;SDS011;9058;52.018;4.202;2022-12-18T10:11:22;16.43;;;9.67;;
17864;SDS011;9058;52.018;4.202;2022-12-18T10:13:54;20.80;;;11.23;;
17864;SDS011;9058;52.018;4.202;2022-12-18T10:16:24;20.17;;;12.40;;
17864;SDS011;9058;52.018;4.202;2022-12-18T10:18:57;18.27;;;11.60;;
17864;SDS011;9058;52.018;4.202;2022-12-18T10:21:30;15.80;;;10.43;;
17864;SDS011;9058;52.018;4.202;2022-12-18T10:24:00;18.63;;;12.97;;
17864;SDS011;9058;52.018;4.202;2022-12-18T10:26:29;19.97;;;12.40;;
17864;SDS011;9058;52.018;4.202;2022-12-18T10:28:57;19.33;;;10.43;;
17864;SDS011;9058;52.018;4.202;2022-12-18T10:31:24;17.63;;;12.93;;
17864;SDS011;9058;52.018;4.202;2022-12-18T10:33:51;18.57;;;10.50;;
17864;SDS011;9058;52.018;4.202;2022-12-18T10:36:20;15.83;;;10.00;;
17864;SDS011;9058;52.018;4.202;2022-12-18T10:38:46;19.63;;;11.97;;
17864;SDS011;9058;52.018;4.202;2022-12-18T10:41:24;20.83;;;12.73;;
17864;SDS011;9058;52.018;4.202;2022-12-18T10:44:10;19.77;;;11.20;;
17864;SDS011;9058;52.018;4.202;2022-12-18T10:46:36;22.13;;;14.23;;
17864;SDS011;9058;52.018;4.202;2022-12-18T10:49:03;24.00;;;13.10;;
17864;SDS011;9058;52.018;4.202;2022-12-18T10:51:31;21.60;;;13.43;;
17864;SDS011;9058;52.018;4.202;2022-12-18T10:53:59;17.40;;;12.13;;
17864;SDS011;9058;52.018;4.202;2022-12-18T10:56:28;13.90;;;9.37;;
17864;SDS011;9058;52.018;4.202;2022-12-18T10:58:57;12.87;;;8.40;;
17864;SDS011;9058;52.018;4.202;2022-12-18T11:01:23;18.50;;;11.60;;
17864;SDS011;9058;52.018;4.202;2022-12-18T11:03:59;16.20;;;10.80;;
17864;SDS011;9058;52.018;4.202;2022-12-18T11:06:27;16.23;;;11.47;;
17864;SDS011;9058;52.018;4.202;2022-12-18T11:08:57;16.57;;;10.60;;
17864;SDS011;9058;52.018;4.202;2022-12-18T11:11:24;11.93;;;7.37;;
17864;SDS011;9058;52.018;4.202;2022-12-18T11:13:55;13.83;;;8.43;;
17864;SDS011;9058;52.018;4.202;2022-12-18T11:16:24;9.77;;;7.30;;
17864;SDS011;9058;52.018;4.202;2022-12-18T11:18:51;13.87;;;9.83;;
17864;SDS011;9058;52.018;4.202;2022-12-18T11:21:18;11.90;;;8.37;;
17864;SDS011;9058;52.018;4.202;2022-12-18T11:23:46;14.27;;;9.07;;
17864;SDS011;9058;52.018;4.202;2022-12-18T11:26:13;11.63;;;7.57;;
17864;SDS011;9058;52.018;4.202;2022-12-18T11:28:41;11.97;;;8.60;;
17864;SDS011;9058;52.018;4.202;2022-12-18T11:31:17;14.63;;;10.30;;
17864;SDS011;9058;52.018;4.202;2022-12-18T11:33:44;16.17;;;10.17;;
17864;SDS011;9058;52.018;4.202;2022-12-18T11:36:13;13.93;;;9.70;;
17864;SDS011;9058;52.018;4.202;2022-12-18T11:38:40;12.40;;;8.40;;
17864;SDS011;9058;52.018;4.202;2022-12-18T11:41:11;12.90;;;9.23;;
17864;SDS011;9058;52.018;4.202;2022-12-18T11:43:40;11.10;;;7.07;;
17864;SDS011;9058;52.018;4.202;2022-12-18T11:46:10;11.20;;;8.03;;
17864;SDS011;9058;52.018;4.202;2022-12-18T11:48:43;12.73;;;7.00;;
17864;SDS011;9058;52.018;4.202;2022-12-18T11:51:11;13.73;;;8.43;;
17864;SDS011;9058;52.018;4.202;2022-12-18T11:53:39;10.33;;;7.50;;
17864;SDS011;9058;52.018;4.202;2022-12-18T11:56:25;14.10;;;7.80;;
17864;SDS011;9058;52.018;4.202;2022-12-18T11:58:55;13.97;;;9.07;;
17864;SDS011;9058;52.018;4.202;2022-12-18T12:01:29;14.17;;;10.20;;
17864;SDS011;9058;52.018;4.202;2022-12-18T12:04:07;10.57;;;7.03;;
17864;SDS011;9058;52.018;4.202;2022-12-18T12:06:40;11.10;;;6.90;;
17864;SDS011;9058;52.018;4.202;2022-12-18T12:09:14;14.83;;;9.20;;
17864;SDS011;9058;52.018;4.202;2022-12-18T12:11:44;13.27;;;9.40;;
17864;SDS011;9058;52.018;4.202;2022-12-18T12:14:17;17.67;;;9.47;;
17864;SDS011;9058;52.018;4.202;2022-12-18T12:16:49;14.27;;;8.33;;
17864;SDS011;9058;52.018;4.202;2022-12-18T12:19:22;14.93;;;10.23;;
17864;SDS011;9058;52.018;4.202;2022-12-18T12:21:53;14.57;;;9.83;;
17864;SDS011;9058;52.018;4.202;2022-12-18T12:24:27;14.07;;;8.30;;
17864;SDS011;9058;52.018;4.202;2022-12-18T12:26:56;15.30;;;9.83;;
17864;SDS011;9058;52.018;4.202;2022-12-18T12:29:31;15.97;;;10.57;;
17864;SDS011;9058;52.018;4.202;2022-12-18T12:32:05;13.77;;;8.73;;
17864;SDS011;9058;52.018;4.202;2022-12-18T12:34:36;17.50;;;10.10;;
17864;SDS011;9058;52.018;4.202;2022-12-18T12:37:11;16.90;;;10.63;;
17864;SDS011;9058;52.018;4.202;2022-12-18T12:39:40;13.53;;;8.70;;
17864;SDS011;9058;52.018;4.202;2022-12-18T12:42:10;15.63;;;8.57;;
17864;SDS011;9058;52.018;4.202;2022-12-18T12:44:56;11.47;;;8.27;;
17864;SDS011;9058;52.018;4.202;2022-12-18T12:47:25;10.87;;;6.73;;
17864;SDS011;9058;52.018;4.202;2022-12-18T12:49:54;10.23;;;7.73;;
17864;SDS011;9058;52.018;4.202;2022-12-18T12:52:23;10.20;;;6.97;;
17864;SDS011;9058;52.018;4.202;2022-12-18T12:54:52;10.33;;;6.77;;
17864;SDS011;9058;52.018;4.202;2022-12-18T12:57:19;11.10;;;7.80;;
17864;SDS011;9058;52.018;4.202;2022-12-18T12:59:49;12.80;;;8.40;;
17864;SDS011;9058;52.018;4.202;2022-12-18T13:02:18;13.97;;;9.80;;
17864;SDS011;9058;52.018;4.202;2022-12-18T13:04:47;11.90;;;8.70;;
17864;SDS011;9058;52.018;4.202;2022-12-18T13:07:17;12.37;;;7.83;;
17864;SDS011;9058;52.018;4.202;2022-12-18T13:12:31;8.97;;;6.73;;
17864;SDS011;9058;52.018;4.202;2022-12-18T13:15:20;12.93;;;7.57;;
17864;SDS011;9058;52.018;4.202;2022-12-18T13:17:46;13.70;;;8.63;;
17864;SDS011;9058;52.018;4.202;2022-12-18T13:20:15;10.20;;;7.30;;
17864;SDS011;9058;52.018;4.202;2022-12-18T13:22:44;11.43;;;6.80;;
17864;SDS011;9058;52.018;4.202;2022-12-18T13:25:27;12.37;;;8.30;;
17864;SDS011;9058;52.018;4.202;2022-12-18T13:27:57;12.33;;;9.13;;
17864;SDS011;9058;52.018;4.202;2022-12-18T13:30:43;15.23;;;8.40;;
17864;SDS011;9058;52.018;4.202;2022-12-18T13:33:30;12.47;;;7.47;;
17864;SDS011;9058;52.018;4.202;2022-12-18T13:36:08;15.20;;;7.07;;
17864;SDS011;9058;52.018;4.202;2022-12-18T13:38:37;10.67;;;8.03;;
17864;SDS011;9058;52.018;4.202;2022-12-18T13:41:04;13.10;;;8.27;;
17864;SDS011;9058;52.018;4.202;2022-12-18T13:43:48;15.20;;;9.03;;
17864;SDS011;9058;52.018;4.202;2022-12-18T13:46:19;15.47;;;9.53;;
17864;SDS011;9058;52.018;4.202;2022-12-18T13:48:49;16.37;;;10.17;;
17864;SDS011;9058;52.018;4.202;2022-12-18T13:51:16;16.77;;;10.10;;
17864;SDS011;9058;52.018;4.202;2022-12-18T13:53:46;12.50;;;9.03;;
17864;SDS011;9058;52.018;4.202;2022-12-18T13:56:15;12.17;;;8.77;;
17864;SDS011;9058;52.018;4.202;2022-12-18T13:58:41;11.67;;;8.53;;
17864;SDS011;9058;52.018;4.202;2022-12-18T14:01:15;11.13;;;7.97;;
17864;SDS011;9058;52.018;4.202;2022-12-18T14:03:47;11.30;;;7.90;;
17864;SDS011;9058;52.018;4.202;2022-12-18T14:06:13;12.67;;;8.93;;
17864;SDS011;9058;52.018;4.202;2022-12-18T14:08:41;10.50;;;7.10;;
17864;SDS011;9058;52.018;4.202;2022-12-18T14:11:12;11.50;;;8.87;;
17864;SDS011;9058;52.018;4.202;2022-12-18T14:13:44;16.37;;;6.67;;
17864;SDS011;9058;52.018;4.202;2022-12-18T14:16:13;12.97;;;9.00;;
17864;SDS011;9058;52.018;4.202;2022-12-18T14:18:42;9.43;;;8.27;;
17864;SDS011;9058;52.018;4.202;2022-12-18T14:21:16;12.07;;;6.97;;
17864;SDS011;9058;52.018;4.202;2022-12-18T14:23:43;10.00;;;5.93;;
17864;SDS011;9058;52.018;4.202;2022-12-18T14:26:21;12.13;;;7.70;;
17864;SDS011;9058;52.018;4.202;2022-12-18T14:28:48;10.40;;;7.33;;
17864;SDS011;9058;52.018;4.202;2022-12-18T14:31:17;12.27;;;8.50;;
17864;SDS011;9058;52.018;4.202;2022-12-18T14:33:43;10.70;;;7.53;;
17864;SDS011;9058;52.018;4.202;2022-12-18T14:36:13;9.80;;;6.60;;
17864;SDS011;9058;52.018;4.202;2022-12-18T14:38:41;13.43;;;9.13;;
17864;SDS011;9058;52.018;4.202;2022-12-18T14:41:09;10.17;;;7.20;;
17864;SDS011;9058;52.018;4.202;2022-12-18T14:43:39;12.77;;;7.57;;
17864;SDS011;9058;52.018;4.202;2022-12-18T14:46:09;9.20;;;7.13;;